Accueil
METAR-TAF:

METAR-TAF

Aéroports :

Aéroport international de Chiang Mai

Chiang Mai, Thaïlande

latitude: 18-47N, longitude: 098-59E, altitude: 312 m

Observation

Le bulletin a été fait il y a 20 minutes, à 01:30 UTC
Vent calme
Température 23°C
Humidité 65%
Pression 1023 hPa
Visibilité: 8000 m

METAR: VTCC 220130Z 00000KT 8000 NSC 23/16 Q1023 NOSIG

Heure: 08:50 (01:50 UTC)

Prévision

Le bulletin a été fait il y a 2 heures et 50 minutes, à 23:00 UTC
Prévision valable du 22 à 00 UTC au 23 à 06 UTC
Vent 5 kt de sud/sud-est
Visibilité: 8000 m

TAF: VTCC 212300Z 2200/2306 16005KT 8000 NSC

Observations et prévisions météorologiques de plus de 4000 aéroports (messages METAR et TAF).

Les stations disponibles sont représentées par des disques jaunes et rouges sur la carte.

Passer la souris dessus pour voir le nom de la station.

Cliquer dessus pour voir les observations et prévisions météorologiques.

Pour changer de carte: cliquez sur les boutons verts avec une croix noire pour zoomer, sur le bouton vert avec un tiret pour effectuer un zoom arrière, ou sur les flèches vertes pour les cartes adjacentes.


METAR-TAF: